Carlton, Minnesota
Current Conditions -  °F | °C
As of 5:37 AM on Friday 31 Oct 2014 (Local Time) from KCOQ Reporting Station
Overcast Overcast  
Wind Chill: 17°   Ceiling: 3100
Heat Index: 27°   Visibility: 10mi
Dew Point: 16°   Wind: 9mph
Humidity: 64%   Direction: 20°NNE
Pressure: 30.48"   Gusts: 18mph
Location:  46.66°N, 92.42°W
Report Text: KCOQ 311037Z AUTO 02008G16KT 10SM OVC031 M03/M09 A3048 RMK AO2
Loading
Personal Weather Stations






























Interactive Weather Map
Tropical Storm Tracking
New forecast layout! Learn more

10-Day Weather Forecast

Advertisements
Track Severe Weather on mobile